Main page
METAR-TAF:

METAR-TAF

Airports :

Vitoria Airport

Vitoria, Spain

latitude: 42-53N, longitude: 002-43W, elevation: 513 m

Current weather observation

The report was made 40 minutes ago, at 07:00 UTC
Wind 2 kt from variable directions
Temperature 12°C
Humidity 94%
Pressure 1021 hPa
Visibility 10 km or more
Scattered clouds at a height of 3500 ft

METAR: LEVT 260700Z VRB02KT 9999 SCT035 12/11 Q1021

Time: 09:40 (07:40 UTC)

Forecast

The report was made 2 hours and 40 minutes ago, at 05:00 UTC
Forecast valid from 26 at 06 UTC to 27 at 06 UTC
Wind 6 kt from the Southwest
Visibility 10 km or more
Scattered clouds at a height of 7000 ft

TAF: LEVT 260500Z 2606/2706 22006KT 9999 SCT070 TX23/2614Z TN11/2606Z

Weather observations and forecasts of more than 4000 airports (METAR and TAF reports).

The available stations are represented by yellow and red dots on the map.

Hover mouse over dot to see the name of the station.

Then click to see weather observations and forecasts.

To change the map : click on the green buttons with a black cross to zoom in, on the green button with a dash to zoom out, or on the green arrows for adjacent maps.


METAR-TAF: